createdAt,value
2016-04-03T00:00:21.212Z,67.99
2016-04-03T00:01:21.215Z,67.99
2016-04-03T00:02:21.217Z,68.38
2016-04-03T00:03:21.236Z,68.28
2016-04-03T00:04:21.317Z,68.18
2016-04-03T00:05:21.272Z,68.85
2016-04-03T00:06:21.291Z,68.28
2016-04-03T00:07:21.294Z,68.28
2016-04-03T00:08:21.312Z,68.28
2016-04-03T00:09:21.330Z,67.9
2016-04-03T00:10:21.364Z,68.38
2016-04-03T00:11:21.366Z,68.85
2016-04-03T00:12:21.385Z,68.76
2016-04-03T00:13:21.388Z,68.76
2016-04-03T00:14:21.422Z,68.95
2016-04-03T00:15:21.424Z,68.85
2016-04-03T00:16:21.458Z,68.85
2016-04-03T00:17:21.461Z,68.76
2016-04-03T00:18:21.480Z,69.14
2016-04-03T00:19:21.530Z,68.95
2016-04-03T00:20:21.501Z,68.76
2016-04-03T00:21:21.519Z,68.66
2016-04-03T00:22:21.538Z,68.66
2016-04-03T00:23:21.555Z,68.72
2016-04-03T00:24:21.574Z,68.66
2016-04-03T00:25:21.576Z,68.47
2016-04-03T00:26:21.596Z,69.01
2016-04-03T00:27:21.613Z,69.48
2016-04-03T00:28:21.632Z,69.68
2016-04-03T00:29:21.651Z,69.77
2016-04-03T00:30:21.668Z,69.39
2016-04-03T00:31:21.671Z,69.48
2016-04-03T00:32:21.689Z,69.68
2016-04-03T00:33:21.707Z,69.68
2016-04-03T00:34:21.820Z,69.39
2016-04-03T00:35:21.728Z,69.68
2016-04-03T00:36:21.747Z,69.58
2016-04-03T00:37:21.764Z,69.58
2016-04-03T00:38:21.783Z,69.77
2016-04-03T00:39:21.802Z,69.96
2016-04-03T00:40:21.820Z,69.96
2016-04-03T00:41:21.823Z,69.96
2016-04-03T00:42:21.842Z,69.68
2016-04-03T00:43:21.875Z,69.58
2016-04-03T00:44:21.894Z,69.68
2016-04-03T00:45:21.896Z,69.68
2016-04-03T00:46:21.914Z,69.77
2016-04-03T00:47:21.917Z,70.06
2016-04-03T00:48:21.935Z,69.58
2016-04-03T00:49:22.032Z,69.58
2016-04-03T00:50:21.971Z,69.48
2016-04-03T00:51:21.974Z,68.72
2016-04-03T00:52:21.852Z,68.53
2016-04-03T00:53:22.011Z,68.15
2016-04-03T00:54:22.046Z,68.44
2016-04-03T00:55:22.048Z,68.34
2016-04-03T00:56:22.051Z,68.44
2016-04-03T00:57:22.068Z,68.44
2016-04-03T00:58:22.118Z,69.01
2016-04-03T00:59:22.106Z,68.63
2016-04-03T01:00:22.123Z,69.29
2016-04-03T01:01:22.143Z,67.77
2016-04-03T01:02:22.770Z,67.39
2016-04-03T01:03:22.851Z,68.91
2016-04-03T01:04:22.870Z,69.39
2016-04-03T01:05:22.873Z,69.68
2016-04-03T01:06:23.515Z,70.06
2016-04-03T01:07:23.221Z,70.12
2016-04-03T01:08:23.074Z,70.59
2016-04-03T01:09:22.436Z,71.11
2016-04-03T01:10:23.251Z,70.78
2016-04-03T01:11:23.379Z,70.53
2016-04-03T01:12:22.366Z,70.78
2016-04-03T01:13:22.337Z,70.34
2016-04-03T01:14:22.356Z,70.12
2016-04-03T01:15:22.358Z,70.21
2016-04-03T01:16:23.690Z,70.53
2016-04-03T01:17:22.758Z,70.25
2016-04-03T01:18:23.370Z,69.68
2016-04-03T01:19:23.483Z,69.68
2016-04-03T01:20:22.766Z,67.16
2016-04-03T01:21:22.628Z,67.74
2016-04-03T01:22:23.005Z,68.59
2016-04-03T01:23:23.462Z,69.35
2016-04-03T01:24:23.496Z,70.31
2016-04-03T01:25:23.827Z,70.97
2016-04-03T01:26:23.517Z,71.45
2016-04-03T01:27:23.177Z,71.26
2016-04-03T01:28:22.554Z,70.88
2016-04-03T01:29:23.604Z,71.45
2016-04-03T01:30:22.574Z,71.73
2016-04-03T01:31:23.234Z,71.64
2016-04-03T01:32:22.612Z,71.55
2016-04-03T01:33:23.989Z,71.93
2016-04-03T01:34:23.617Z,71.17
2016-04-03T01:35:23.665Z,70.88
2016-04-03T01:36:22.715Z,70.21
2016-04-03T01:37:22.687Z,68.5
2016-04-03T01:38:22.705Z,68.21
2016-04-03T01:39:23.724Z,69.35
2016-04-03T01:40:23.414Z,70.4
2016-04-03T01:41:23.792Z,70.88
2016-04-03T01:42:23.419Z,70.59
2016-04-03T01:43:23.453Z,71.36
2016-04-03T01:44:23.456Z,71.36
2016-04-03T01:45:23.802Z,71.17
2016-04-03T01:46:23.867Z,71.26
2016-04-03T01:47:23.823Z,70.5
2016-04-03T01:48:24.201Z,70.5
2016-04-03T01:49:23.689Z,70.5
2016-04-03T01:50:23.941Z,70.5
2016-04-03T01:51:23.944Z,70.5
2016-04-03T01:52:23.915Z,69.35
2016-04-03T01:53:23.464Z,69.26
2016-04-03T01:54:23.967Z,68.75
2016-04-03T01:55:24.517Z,69.79
2016-04-03T01:56:24.316Z,69.79
2016-04-03T01:57:23.366Z,70.18
2016-04-03T01:58:23.274Z,70.84
2016-04-03T01:59:24.402Z,71.42
2016-04-03T02:00:24.327Z,71.13
2016-04-03T02:01:24.080Z,71.42
2016-04-03T02:02:23.583Z,71.03
2016-04-03T02:03:23.710Z,71.42
2016-04-03T02:04:23.807Z,70.84
2016-04-03T02:05:24.481Z,71.22
2016-04-03T02:06:23.765Z,70.84
2016-04-03T02:07:23.612Z,71.32
2016-04-03T02:08:24.134Z,71.42
2016-04-03T02:09:24.215Z,70.47
2016-04-03T02:10:23.172Z,69.51
2016-04-03T02:11:23.190Z,69.79
2016-04-03T02:12:23.193Z,70.47
2016-04-03T02:13:23.211Z,71.13
2016-04-03T02:14:23.229Z,71.61
2016-04-03T02:15:24.231Z,71.8
2016-04-03T02:16:23.891Z,70.84
2016-04-03T02:17:23.956Z,71.03
2016-04-03T02:18:24.146Z,71.7
2016-04-03T02:19:24.680Z,72.37
2016-04-03T02:20:23.823Z,72.46
2016-04-03T02:21:24.669Z,72.65
2016-04-03T02:22:24.641Z,72.56
2016-04-03T02:23:24.519Z,72.08
2016-04-03T02:24:24.225Z,70.94
2016-04-03T02:25:24.430Z,72.14
2016-04-03T02:26:24.340Z,72.14
2016-04-03T02:28:23.423Z,72.14
2016-04-03T02:29:23.441Z,71.28
2016-04-03T02:30:23.476Z,71.95
2016-04-03T02:31:23.478Z,72.42
2016-04-03T02:32:23.512Z,72.52
2016-04-03T02:33:23.529Z,72.62
2016-04-03T02:34:23.532Z,72.81
2016-04-03T02:35:23.551Z,72.62
2016-04-03T02:36:23.554Z,72.05
2016-04-03T02:37:23.557Z,71.95
2016-04-03T02:38:23.575Z,72.14
2016-04-03T02:39:23.578Z,72.33
2016-04-03T02:40:23.611Z,72.33
2016-04-03T02:41:23.614Z,71.67
2016-04-03T02:42:23.633Z,72.42
2016-04-03T02:43:23.650Z,72.42
2016-04-03T02:44:23.653Z,72.62
2016-04-03T02:45:23.687Z,72.71
2016-04-03T02:46:23.690Z,72.9
2016-04-03T02:47:23.740Z,72.05
2016-04-03T02:48:23.727Z,70.9
2016-04-03T02:49:23.777Z,70.81
2016-04-03T02:50:23.747Z,71.86
2016-04-03T02:51:23.766Z,72.05
2016-04-03T02:52:23.768Z,72.14
2016-04-03T02:53:23.787Z,73
2016-04-03T02:54:23.805Z,72.52
2016-04-03T02:55:23.808Z,72.9
2016-04-03T02:56:23.827Z,73.19
2016-04-03T02:57:23.844Z,73.1
2016-04-03T02:58:23.879Z,73.1
2016-04-03T02:59:23.882Z,72.71
2016-04-03T03:00:23.900Z,72.81
2016-04-03T03:01:23.918Z,72.71
2016-04-03T03:02:23.937Z,72.24
2016-04-03T03:03:23.954Z,72.33
2016-04-03T03:04:24.020Z,73.1
2016-04-03T03:05:23.960Z,73.1
2016-04-03T03:06:23.978Z,73
2016-04-03T03:07:23.981Z,72.52
2016-04-03T03:08:23.998Z,73.19
2016-04-03T03:09:24.033Z,73.1
2016-04-03T03:10:24.020Z,73.1
2016-04-03T03:11:24.054Z,73
2016-04-03T03:12:24.057Z,72.71
2016-04-03T03:13:24.075Z,72.9
2016-04-03T03:14:24.094Z,72.9
2016-04-03T03:15:24.111Z,73.1
2016-04-03T03:16:24.161Z,73
2016-04-03T03:17:24.117Z,72.62
2016-04-03T03:18:24.135Z,72.62
2016-04-03T03:19:24.264Z,72.62
2016-04-03T03:20:24.172Z,72.33
2016-04-03T03:21:24.191Z,71.86
2016-04-03T03:22:24.194Z,72.24
2016-04-03T03:23:24.227Z,72.9
2016-04-03T03:24:24.230Z,73
2016-04-03T03:25:24.248Z,72.42
2016-04-03T03:26:24.251Z,72.71
2016-04-03T03:27:24.269Z,73.1
2016-04-03T03:28:24.287Z,72.81
2016-04-03T03:29:24.305Z,72.9
2016-04-03T03:30:24.308Z,73.28
2016-04-03T03:31:24.326Z,73.53
2016-04-03T03:32:24.330Z,73.34
2016-04-03T03:33:24.348Z,72.58
2016-04-03T03:34:24.444Z,72.86
2016-04-03T03:35:24.401Z,73.25
2016-04-03T03:36:24.403Z,73.25
2016-04-03T03:37:24.421Z,72.71
2016-04-03T03:38:24.423Z,72.9
2016-04-03T03:39:24.442Z,73
2016-04-03T03:40:24.445Z,72.71
2016-04-03T03:41:24.462Z,73.1
2016-04-03T03:42:24.481Z,72.71
2016-04-03T03:43:24.483Z,72.9
2016-04-03T03:44:24.502Z,72.71
2016-04-03T03:45:24.520Z,72.9
2016-04-03T03:46:24.539Z,72.81
2016-04-03T03:47:24.558Z,73.47
2016-04-03T03:48:24.575Z,73.19
2016-04-03T03:49:24.750Z,73.19
2016-04-03T03:50:24.596Z,73.38
2016-04-03T03:51:24.646Z,73.57
2016-04-03T03:52:24.633Z,73.76
2016-04-03T03:53:24.635Z,73.38
2016-04-03T03:54:24.638Z,73.76
2016-04-03T03:55:24.672Z,74.43
2016-04-03T03:56:24.675Z,74.9
2016-04-03T03:57:24.694Z,75.09
2016-04-03T03:58:24.713Z,74.43
2016-04-03T03:59:24.715Z,74.43
2016-04-03T04:00:24.733Z,74.43
2016-04-03T04:01:24.751Z,74.33
2016-04-03T04:02:24.754Z,73.95
2016-04-03T04:03:24.772Z,74.33
2016-04-03T04:04:24.853Z,74.52
2016-04-03T04:05:24.793Z,74.14
2016-04-03T04:06:24.826Z,74.24
2016-04-03T04:07:24.846Z,74.33
2016-04-03T04:08:24.832Z,74.71
2016-04-03T04:09:24.851Z,74.43
2016-04-03T04:10:24.870Z,74.43
2016-04-03T04:11:24.887Z,74.33
2016-04-03T04:12:24.890Z,74.24
2016-04-03T04:13:24.923Z,74.04
2016-04-03T04:14:24.926Z,74.33
2016-04-03T04:15:24.945Z,74.43
2016-04-03T04:16:24.947Z,73.47
2016-04-03T04:17:24.966Z,73.66
2016-04-03T04:18:24.983Z,73.76
2016-04-03T04:19:25.064Z,73.57
2016-04-03T04:20:25.005Z,72.71
2016-04-03T04:21:25.039Z,72.71
2016-04-03T04:22:25.042Z,73
2016-04-03T04:23:25.045Z,73
2016-04-03T04:24:25.078Z,72.9
2016-04-03T04:25:25.081Z,73.19
2016-04-03T04:26:25.099Z,72.9
2016-04-03T04:27:25.102Z,72.62
2016-04-03T04:28:25.121Z,72.9
2016-04-03T04:29:25.138Z,72.42
2016-04-03T04:30:25.158Z,72.9
2016-04-03T04:31:25.176Z,72.37
2016-04-03T04:32:25.179Z,72.56
2016-04-03T04:33:25.213Z,72.14
2016-04-03T04:34:25.246Z,72.65
2016-04-03T04:35:25.218Z,72.62
2016-04-03T04:36:25.251Z,72.75
2016-04-03T04:37:25.254Z,72.65
2016-04-03T04:38:25.273Z,72.37
2016-04-03T04:39:25.275Z,72.05
2016-04-03T04:40:25.293Z,72.27
2016-04-03T04:41:25.311Z,72.46
2016-04-03T04:42:25.330Z,72.17
2016-04-03T04:43:25.333Z,72.56
2016-04-03T04:44:25.351Z,72.56
2016-04-03T04:45:25.370Z,72.08
2016-04-03T04:46:25.387Z,72.17
2016-04-03T04:47:25.406Z,71.61
2016-04-03T04:48:25.408Z,71.8
2016-04-03T04:49:25.567Z,71.7
2016-04-03T04:50:25.477Z,71.51
2016-04-03T04:51:25.448Z,71.61
2016-04-03T04:52:25.466Z,71.13
2016-04-03T04:53:25.485Z,71.32
2016-04-03T04:54:25.487Z,71.03
2016-04-03T04:55:25.521Z,71.03
2016-04-03T04:56:25.524Z,70.94
2016-04-03T04:57:25.541Z,71.13
2016-04-03T04:58:25.561Z,71.03
2016-04-03T04:59:25.563Z,71.42
2016-04-03T05:00:25.597Z,71.42
2016-04-03T05:01:25.600Z,71.42
2016-04-03T05:02:25.602Z,71.51
2016-04-03T05:03:25.637Z,71.89
2016-04-03T05:04:25.748Z,71.7
2016-04-03T05:05:25.673Z,71.7
2016-04-03T05:06:25.676Z,71.32
2016-04-03T05:07:25.694Z,71.61
2016-04-03T05:08:25.697Z,71.8
2016-04-03T05:09:25.715Z,71.51
2016-04-03T05:10:25.718Z,71.61
2016-04-03T05:11:25.736Z,71.7
2016-04-03T05:12:25.754Z,71.51
2016-04-03T05:13:25.773Z,71.89
2016-04-03T05:14:25.791Z,71.51
2016-04-03T05:15:25.798Z,71.89
2016-04-03T05:16:25.790Z,71.51
2016-04-03T05:17:25.797Z,71.51
2016-04-03T05:18:25.803Z,71.51
2016-04-03T05:19:25.890Z,71.51
2016-04-03T05:20:25.826Z,71.61
2016-04-03T05:21:25.825Z,71.89
2016-04-03T05:22:25.839Z,71.51
2016-04-03T05:23:25.853Z,71.98
2016-04-03T05:24:25.869Z,71.89
2016-04-03T05:25:25.854Z,71.51
2016-04-03T05:26:25.886Z,71.32
2016-04-03T05:27:25.887Z,70.65
2016-04-03T05:28:25.905Z,70.37
2016-04-03T05:29:25.921Z,70.59
2016-04-03T05:30:25.923Z,70.12
2016-04-03T05:31:25.957Z,70.21
2016-04-03T05:32:25.959Z,70.02
2016-04-03T05:33:25.977Z,70.31
2016-04-03T05:34:25.854Z,70.31
2016-04-03T05:35:25.997Z,69.74
2016-04-03T05:36:26.016Z,69.64
2016-04-03T05:37:26.033Z,69.74
2016-04-03T05:38:26.051Z,69.26
2016-04-03T05:39:26.069Z,69.35
2016-04-03T05:40:26.087Z,68.98
2016-04-03T05:41:26.106Z,68.59
2016-04-03T05:42:26.109Z,68.78
2016-04-03T05:43:26.126Z,68.59
2016-04-03T05:44:26.129Z,68.69
2016-04-03T05:45:26.163Z,69.26
2016-04-03T05:46:26.166Z,68.78
2016-04-03T05:47:26.184Z,68.78
2016-04-03T05:48:26.233Z,69.07
2016-04-03T05:49:26.424Z,68.82
2016-04-03T05:50:26.239Z,68.82
2016-04-03T05:51:26.242Z,68.53
2016-04-03T05:52:26.260Z,68.24
2016-04-03T05:53:26.263Z,68.63
2016-04-03T05:54:26.297Z,68.91
2016-04-03T05:55:26.316Z,68.63
2016-04-03T05:56:26.318Z,68.53
2016-04-03T05:57:26.336Z,68.82
2016-04-03T05:58:26.558Z,67.86
2016-04-03T05:59:26.358Z,67.29
2016-04-03T06:00:26.375Z,67.68
2016-04-03T06:01:26.410Z,68.15
2016-04-03T06:02:26.427Z,67.77
2016-04-03T06:03:26.446Z,68.05
2016-04-03T06:04:26.511Z,68.15
2016-04-03T06:05:26.452Z,68.34
2016-04-03T06:06:26.485Z,67.58
2016-04-03T06:07:26.488Z,67.48
2016-04-03T06:08:26.507Z,67.39
2016-04-03T06:09:26.524Z,67.2
2016-04-03T06:10:26.527Z,67.42
2016-04-03T06:11:26.546Z,67.04
2016-04-03T06:12:26.564Z,66.75
2016-04-03T06:13:26.582Z,66.85
2016-04-03T06:14:26.601Z,66.66
2016-04-03T06:15:26.619Z,66.28
2016-04-03T06:16:26.622Z,66.94
2016-04-03T06:17:26.656Z,66.38
2016-04-03T06:18:26.658Z,66.66
2016-04-03T06:19:26.833Z,66.28
2016-04-03T06:20:26.695Z,66.18
2016-04-03T06:21:26.698Z,65.8
2016-04-03T06:22:26.731Z,65.42
2016-04-03T06:23:26.734Z,66.28
2016-04-03T06:24:26.784Z,65.13
2016-04-03T06:25:26.787Z,64.85
2016-04-03T06:26:26.789Z,65.74
2016-04-03T06:27:26.808Z,65.36
2016-04-03T06:28:26.826Z,65.26
2016-04-03T06:29:26.844Z,64.59
2016-04-03T06:30:26.863Z,64.78
2016-04-03T06:31:26.881Z,64.69
2016-04-03T06:32:26.883Z,64.78
2016-04-03T06:33:26.902Z,64.97
2016-04-03T06:34:26.967Z,64.31
2016-04-03T06:35:26.938Z,64.78
2016-04-03T06:36:26.941Z,64.59
2016-04-03T06:37:26.960Z,64.02
2016-04-03T06:38:26.977Z,63.73
2016-04-03T06:39:27.012Z,63.64
2016-04-03T06:40:27.015Z,64.21
2016-04-03T06:41:27.032Z,63.35
2016-04-03T06:42:27.051Z,63.39
2016-04-03T06:43:27.054Z,63.67
2016-04-03T06:44:27.087Z,63.2
2016-04-03T06:45:27.090Z,63.39
2016-04-03T06:46:27.124Z,63.2
2016-04-03T06:47:27.143Z,62.43
2016-04-03T06:48:27.146Z,62.43
2016-04-03T06:49:27.304Z,61.95
2016-04-03T06:50:27.167Z,61.98
2016-04-03T06:51:27.184Z,61.79
2016-04-03T06:52:27.219Z,61.22
2016-04-03T06:53:27.222Z,61.51
2016-04-03T06:54:27.255Z,61.69
2016-04-03T06:55:27.258Z,61.51
2016-04-03T06:56:27.292Z,60.36
2016-04-03T06:57:27.295Z,59.53
2016-04-03T06:58:27.329Z,60.39
2016-04-03T06:59:27.331Z,60.77
2016-04-03T07:00:27.350Z,59.34
2016-04-03T07:01:27.352Z,58.76
2016-04-03T07:02:27.386Z,58.19
2016-04-03T07:03:27.405Z,57.43
2016-04-03T07:04:27.532Z,57.04
2016-04-03T07:05:27.425Z,56.98
2016-04-03T07:06:27.444Z,56.88
2016-04-03T07:07:27.477Z,56.02
2016-04-03T07:08:27.527Z,55.93
2016-04-03T07:09:27.499Z,57.29
2016-04-03T07:10:27.517Z,55.86
2016-04-03T07:11:27.536Z,56.27
2016-04-03T07:12:27.554Z,55.31
2016-04-03T07:13:27.572Z,54.93
2016-04-03T07:14:27.591Z,53.11
2016-04-03T07:15:27.610Z,53.04
2016-04-03T07:16:27.643Z,52.37
2016-04-03T07:17:27.662Z,53.23
2016-04-03T07:18:27.665Z,51.7
2016-04-03T07:19:27.698Z,50.74
2016-04-03T07:20:27.701Z,50.48
2016-04-03T07:21:27.719Z,49.62
2016-04-03T07:22:27.737Z,49.05
2016-04-03T07:23:27.771Z,48.3
2016-04-03T07:24:27.789Z,47.66
2016-04-03T07:25:27.808Z,46.22
2016-04-03T07:26:27.826Z,45.18
2016-04-03T07:27:27.844Z,44.15
2016-04-03T07:28:27.862Z,42.43
2016-04-03T07:29:27.881Z,41.56
2016-04-03T07:30:27.914Z,41.29
2016-04-03T07:31:27.933Z,43.4
2016-04-03T07:32:27.952Z,44.17
2016-04-03T07:33:27.970Z,43.52
2016-04-03T07:34:28.098Z,42.37
2016-04-03T07:35:28.023Z,41.7
2016-04-03T07:36:28.041Z,41.79
2016-04-03T07:37:28.059Z,40.56
2016-04-03T07:38:28.078Z,40.66
2016-04-03T07:39:28.096Z,39.53
2016-04-03T07:40:28.130Z,38.85
2016-04-03T07:41:28.147Z,38.47
2016-04-03T07:42:28.369Z,37.72
2016-04-03T07:43:28.200Z,38.59
2016-04-03T07:44:28.218Z,38.87
2016-04-03T07:45:28.252Z,39.37
2016-04-03T07:46:28.271Z,38.51
2016-04-03T07:47:28.288Z,38.24
2016-04-03T07:48:28.307Z,35.93
2016-04-03T07:49:28.497Z,34.78
2016-04-03T07:50:28.359Z,33.74
2016-04-03T07:51:28.393Z,33.84
2016-04-03T07:52:28.412Z,33.37
2016-04-03T07:53:28.430Z,33.37
2016-04-03T07:54:28.464Z,32.6
2016-04-03T07:55:28.514Z,33
2016-04-03T07:56:28.517Z,32.04
2016-04-03T07:57:28.534Z,31.07
2016-04-03T07:58:28.553Z,30.32
2016-04-03T07:59:28.587Z,31.09
2016-04-03T08:00:28.620Z,30.62
2016-04-03T08:01:28.670Z,31.2
2016-04-03T08:02:28.672Z,30.44
2016-04-03T08:03:28.536Z,28.62
2016-04-03T08:04:28.975Z,28.54
2016-04-03T08:05:28.759Z,28.36
2016-04-03T08:06:28.778Z,28.55
2016-04-03T08:07:28.811Z,27.6
2016-04-03T08:08:28.830Z,27.13
2016-04-03T08:09:28.863Z,27.33
2016-04-03T08:10:28.897Z,25.99
2016-04-03T08:11:28.916Z,24.74
2016-04-03T08:12:28.950Z,23.96
2016-04-03T08:13:28.968Z,23.39
2016-04-03T08:14:29.002Z,22.91
2016-04-03T08:15:29.021Z,23.6
2016-04-03T08:16:29.070Z,22.16
2016-04-03T08:17:29.088Z,20.72
2016-04-03T08:18:29.153Z,19.35
2016-04-03T08:19:29.296Z,20.24
2016-04-03T08:20:29.190Z,19.86
2016-04-03T08:21:29.208Z,19.19
2016-04-03T08:22:29.243Z,19.09
2016-04-03T08:23:29.276Z,18.6
2016-04-03T08:24:29.295Z,18.98
2016-04-03T08:25:29.329Z,18.4
2016-04-03T08:26:29.363Z,18.79
2016-04-03T08:27:29.396Z,17.72
2016-04-03T08:28:29.431Z,18.11
2016-04-03T08:29:29.465Z,18.21
2016-04-03T08:30:29.498Z,16.36
2016-04-03T08:31:29.517Z,16.47
2016-04-03T08:32:29.551Z,15.59
2016-04-03T08:33:29.584Z,15.31
2016-04-03T08:34:29.712Z,15.51
2016-04-03T08:35:29.684Z,15.22
2016-04-03T08:36:29.670Z,15.61
2016-04-03T08:37:29.720Z,14.75
2016-04-03T08:38:29.754Z,14.75
2016-04-03T08:39:29.788Z,13.68
2016-04-03T08:40:29.806Z,13.29
2016-04-03T08:41:29.840Z,13.2
2016-04-03T08:42:29.874Z,13.1
2016-04-03T08:43:29.908Z,11.83
2016-04-03T08:44:29.942Z,11.54
2016-04-03T08:45:29.976Z,12.13
2016-04-03T08:46:30.010Z,9.88
2016-04-03T08:47:30.043Z,9.49
2016-04-03T08:48:30.077Z,9.89
2016-04-03T08:49:30.205Z,10.19
2016-04-03T08:50:30.145Z,10.48
2016-04-03T08:51:30.179Z,10.78
2016-04-03T08:52:30.213Z,9.2
2016-04-03T08:53:30.231Z,8.91
2016-04-03T08:54:30.281Z,9.89
2016-04-03T08:55:30.315Z,11.06
2016-04-03T08:56:30.348Z,10.57
2016-04-03T08:57:30.384Z,11.15
2016-04-03T08:58:30.417Z,10.47
2016-04-03T08:59:30.436Z,10.37
2016-04-03T09:00:30.484Z,11.25
2016-04-03T09:01:30.534Z,11.74
2016-04-03T09:02:30.553Z,11.35
2016-04-03T09:03:30.586Z,10.96
2016-04-03T09:04:30.636Z,10.96
2016-04-03T09:05:30.655Z,10.76
2016-04-03T09:06:30.689Z,10.96
2016-04-03T09:07:31.106Z,12.13
2016-04-03T09:08:30.779Z,12.13
2016-04-03T09:09:30.798Z,11.64
2016-04-03T09:10:30.832Z,12.13
2016-04-03T09:11:30.849Z,11.84
2016-04-03T09:12:30.884Z,11.84
2016-04-03T09:13:30.933Z,11.65
2016-04-03T09:14:30.951Z,11.16
2016-04-03T09:15:30.985Z,10.48
2016-04-03T09:16:31.020Z,10.48
2016-04-03T09:17:31.085Z,10.77
2016-04-03T09:18:31.087Z,9.89
2016-04-03T09:19:30.996Z,10.08
2016-04-03T09:20:31.156Z,9.01
2016-04-03T09:21:31.205Z,9.79
2016-04-03T09:22:31.223Z,10.48
2016-04-03T09:23:31.256Z,9.89
2016-04-03T09:24:31.306Z,9.21
2016-04-03T09:25:31.324Z,7.54
2016-04-03T09:26:31.374Z,8.72
2016-04-03T09:27:31.392Z,8.82
2016-04-03T09:28:31.427Z,9.01
2016-04-03T09:29:31.461Z,9.8
2016-04-03T09:30:31.494Z,10.1
2016-04-03T09:31:31.528Z,7.25
2016-04-03T09:32:31.577Z,5.98
2016-04-03T09:33:31.597Z,5.78
2016-04-03T09:34:31.724Z,3.72
2016-04-03T09:35:31.680Z,4.5
2016-04-03T09:36:31.698Z,4.8
2016-04-03T09:37:31.732Z,6.37
2016-04-03T09:38:31.768Z,7.94
2016-04-03T09:39:31.801Z,7.64
2016-04-03T09:40:31.836Z,7.65
2016-04-03T09:41:31.885Z,7.55
2016-04-03T09:42:31.903Z,7.16
2016-04-03T09:43:31.937Z,5.59
2016-04-03T09:44:31.972Z,5.2
2016-04-03T09:45:32.021Z,5.59
2016-04-03T09:46:32.039Z,5.3
2016-04-03T09:47:32.073Z,5.2
2016-04-03T09:48:32.108Z,4.91
2016-04-03T09:49:32.141Z,4.81
2016-04-03T09:50:32.191Z,4.91
2016-04-03T09:51:32.209Z,3.92
2016-04-03T09:52:32.259Z,2.55
2016-04-03T09:53:32.293Z,2.45
2016-04-03T09:54:32.311Z,2.75
2016-04-03T09:55:32.344Z,3.63
2016-04-03T09:56:32.379Z,4.71
2016-04-03T09:57:32.413Z,5.2
2016-04-03T09:58:32.446Z,7.86
2016-04-03T09:59:32.496Z,7.76
2016-04-03T10:00:32.530Z,6.78
2016-04-03T10:01:32.564Z,5.6
2016-04-03T10:02:32.593Z,6.57
2016-04-03T10:03:32.660Z,5.3
2016-04-03T10:04:32.524Z,6.87
2016-04-03T10:05:32.691Z,7.26
2016-04-03T10:06:33.046Z,5.99
2016-04-03T10:07:32.768Z,5.99
2016-04-03T10:08:32.801Z,5.5
2016-04-03T10:09:32.835Z,5.99
2016-04-03T10:10:32.853Z,5.4
2016-04-03T10:11:32.888Z,6.87
2016-04-03T10:12:32.922Z,6.29
2016-04-03T10:13:32.971Z,5.9
2016-04-03T10:14:33.006Z,5.3
2016-04-03T10:15:33.039Z,6.29
2016-04-03T10:16:33.073Z,7.07
2016-04-03T10:17:33.106Z,7.66
2016-04-03T10:18:33.141Z,7.46
2016-04-03T10:19:33.144Z,6.67
2016-04-03T10:20:33.225Z,7.07
2016-04-03T10:21:33.242Z,5.5
2016-04-03T10:22:33.277Z,5.59
2016-04-03T10:23:33.327Z,5.59
2016-04-03T10:24:33.361Z,5.49
2016-04-03T10:25:33.394Z,6.28
2016-04-03T10:26:33.413Z,6.87
2016-04-03T10:27:33.462Z,5.59
2016-04-03T10:28:33.496Z,5.69
2016-04-03T10:29:33.530Z,7.16
2016-04-03T10:30:33.564Z,5.3
2016-04-03T10:31:33.614Z,5.69
2016-04-03T10:32:33.632Z,5.69
2016-04-03T10:33:33.666Z,7.16
2016-04-03T10:34:33.746Z,7.16
2016-04-03T10:35:33.734Z,7.75
2016-04-03T10:36:33.767Z,7.06
2016-04-03T10:37:33.801Z,8.53
2016-04-03T10:38:33.851Z,7.06
2016-04-03T10:39:33.870Z,6.38
2016-04-03T10:40:33.919Z,6.96
2016-04-03T10:41:33.937Z,7.55
2016-04-03T10:42:33.971Z,7.26
2016-04-03T10:43:34.021Z,5.88
2016-04-03T10:44:34.055Z,7.35
2016-04-03T10:45:34.089Z,7.26
2016-04-03T10:46:34.123Z,7.26
2016-04-03T10:47:34.142Z,9.02
2016-04-03T10:48:34.175Z,7.06
2016-04-03T10:49:34.209Z,6.96
2016-04-03T10:50:34.258Z,8.63
2016-04-03T10:51:34.292Z,8.63
2016-04-03T10:52:34.325Z,9.31
2016-04-03T10:53:34.344Z,7.75
2016-04-03T10:54:34.394Z,7.84
2016-04-03T10:55:34.413Z,7.75
2016-04-03T10:56:34.447Z,6.37
2016-04-03T10:57:34.496Z,6.76
2016-04-03T10:58:34.530Z,7.45
2016-04-03T10:59:34.563Z,8.04
2016-04-03T11:00:34.582Z,7.65
2016-04-03T11:01:34.615Z,8.53
2016-04-03T11:02:34.665Z,7.65
2016-04-03T11:03:34.684Z,8.92
2016-04-03T11:04:34.858Z,8.63
2016-04-03T11:05:34.768Z,8.73
2016-04-03T11:06:34.802Z,9.02
2016-04-03T11:07:34.843Z,8.73
2016-04-03T11:08:34.861Z,8.63
2016-04-03T11:09:34.895Z,8.44
2016-04-03T11:10:34.929Z,8.92
2016-04-03T11:11:34.963Z,8.83
2016-04-03T11:12:35.013Z,8.62
2016-04-03T11:13:35.047Z,8.62
2016-04-03T11:14:35.096Z,9.41
2016-04-03T11:15:34.942Z,9.81
2016-04-03T11:16:35.148Z,9.22
2016-04-03T11:17:35.385Z,8.83
2016-04-03T11:18:35.216Z,8.83
2016-04-03T11:19:35.234Z,9.41
2016-04-03T11:20:35.284Z,9.12
2016-04-03T11:21:35.302Z,8.73
2016-04-03T11:22:35.336Z,7.55
2016-04-03T11:23:35.370Z,7.94
2016-04-03T11:24:35.435Z,7.94
2016-04-03T11:25:35.469Z,9.11
2016-04-03T11:26:35.472Z,8.91
2016-04-03T11:27:35.506Z,8.13
2016-04-03T11:28:35.556Z,9.01
2016-04-03T11:29:35.574Z,9.01
2016-04-03T11:30:35.608Z,8.52
2016-04-03T11:31:35.642Z,9.8
2016-04-03T11:32:35.676Z,9.8
2016-04-03T11:33:35.726Z,10.87
2016-04-03T11:34:35.743Z,9.11
2016-04-03T11:35:35.777Z,10.08
2016-04-03T11:36:35.812Z,9.8
2016-04-03T11:37:35.846Z,8.62
2016-04-03T11:38:35.880Z,8.03
2016-04-03T11:39:35.913Z,8.22
2016-04-03T11:40:35.995Z,8.62
2016-04-03T11:41:36.075Z,8.62
2016-04-03T11:42:36.031Z,9.41
2016-04-03T11:43:36.080Z,9.11
2016-04-03T11:44:36.098Z,8.23
2016-04-03T11:45:36.117Z,9.5
2016-04-03T11:46:36.151Z,9.41
2016-04-03T11:47:36.170Z,8.04
2016-04-03T11:48:36.203Z,10.19
2016-04-03T11:49:36.253Z,10.38
2016-04-03T11:50:36.272Z,9.9
2016-04-03T11:51:36.353Z,8.92
2016-04-03T11:52:36.355Z,8.53
2016-04-03T11:53:36.217Z,8.14
2016-04-03T11:54:36.423Z,6.96
2016-04-03T11:55:36.441Z,8.53
2016-04-03T11:56:36.475Z,9.21
2016-04-03T11:57:36.508Z,6.67
2016-04-03T11:58:36.558Z,7.94
2016-04-03T11:59:36.560Z,9.31
2016-04-03T12:00:36.641Z,7.06
2016-04-03T12:01:36.645Z,8.33
2016-04-03T12:02:36.663Z,8.92
2016-04-03T12:03:36.727Z,9.03
2016-04-03T12:04:36.731Z,9.03
2016-04-03T12:05:36.781Z,7.95
2016-04-03T12:06:36.908Z,7.07
2016-04-03T12:07:36.863Z,8.64
2016-04-03T12:08:36.882Z,7.56
2016-04-03T12:09:36.916Z,6.87
2016-04-03T12:10:36.951Z,6.87
2016-04-03T12:11:36.985Z,7.85
2016-04-03T12:12:37.018Z,7.17
2016-04-03T12:13:37.037Z,7.26
2016-04-03T12:14:37.086Z,7.75
2016-04-03T12:15:37.120Z,7.45
2016-04-03T12:16:37.154Z,6.38
2016-04-03T12:17:37.173Z,6.77
2016-04-03T12:18:37.222Z,5.59
2016-04-03T12:19:37.255Z,6.77
2016-04-03T12:20:37.290Z,7.06
2016-04-03T12:21:37.323Z,6.86
2016-04-03T12:22:37.358Z,7.65
2016-04-03T12:23:37.391Z,6.96
2016-04-03T12:24:37.425Z,7.45
2016-04-03T12:25:37.459Z,6.87
2016-04-03T12:26:37.493Z,6.18
2016-04-03T12:27:37.528Z,6.28
2016-04-03T12:28:37.545Z,5.79
2016-04-03T12:29:37.595Z,6.38
2016-04-03T12:30:37.614Z,8.44
2016-04-03T12:31:37.772Z,6.48
2016-04-03T12:32:37.697Z,6.09
2016-04-03T12:33:37.716Z,6.48
2016-04-03T12:34:37.765Z,6.48
2016-04-03T12:35:37.784Z,7.56
2016-04-03T12:36:37.817Z,7.65
2016-04-03T12:37:37.866Z,6.38
2016-04-03T12:38:37.901Z,6.48
2016-04-03T12:39:37.934Z,5.99
2016-04-03T12:40:37.953Z,5.59
2016-04-03T12:41:38.003Z,7.65
2016-04-03T12:42:38.021Z,8.63
2016-04-03T12:43:38.071Z,9.03
2016-04-03T12:44:38.105Z,8.73
2016-04-03T12:45:38.138Z,6.77
2016-04-03T12:46:38.173Z,7.56
2016-04-03T12:47:38.191Z,5.99
2016-04-03T12:48:38.241Z,4.81
2016-04-03T12:49:38.259Z,6.18
2016-04-03T12:50:38.309Z,6.57
2016-04-03T12:51:38.327Z,6.86
2016-04-03T12:52:38.376Z,6.76
2016-04-03T12:53:38.426Z,7.35
2016-04-03T12:54:38.444Z,6.47
2016-04-03T12:55:38.540Z,7.65
2016-04-03T12:56:38.528Z,8.83
2016-04-03T12:57:38.546Z,6.38
2016-04-03T12:58:38.564Z,6.96
2016-04-03T12:59:38.598Z,5.69
2016-04-03T13:00:38.648Z,6.96
2016-04-03T13:01:38.682Z,6.67
2016-04-03T13:02:38.700Z,6.57
2016-04-03T13:03:38.733Z,6.37
2016-04-03T13:04:38.784Z,8.72